Ulysses, Kansas
Current Conditions -  °F | °C
As of 10:15 AM on Wednesday 22 Oct 2014 (Local Time) from K3K3 Reporting Station
Clear Clear  
Wind Chill: 64°   Ceiling: Unl
Heat Index: 64°   Visibility: 10mi
Dew Point: 55°   Wind: 13mph
Humidity: 73%   Direction: 210°SSW
Pressure: 30.01"   Gusts: NA
Location:  37.58°N, 101.36°W
Report Text: K3K3 221515Z AUTO 21011KT 10SM CLR 18/13 A3001 RMK AO2
Loading
Personal Weather Stations






























Interactive Weather Map
Tropical Storm Tracking
New forecast layout! Learn more

10-Day Weather Forecast

Advertisements
Track Severe Weather on mobile